createdAt,value
2017-08-05T00:00:13.448Z,98923
2017-08-05T00:02:41.513Z,98919
2017-08-05T00:05:09.583Z,98923
2017-08-05T00:07:37.659Z,98930
2017-08-05T00:10:05.732Z,98934
2017-08-05T00:12:33.790Z,98928
2017-08-05T00:15:01.863Z,98924
2017-08-05T00:17:29.934Z,98923
2017-08-05T00:19:58.002Z,98922
2017-08-05T00:22:27.000Z,98922
2017-08-05T00:24:55.072Z,98924
2017-08-05T00:27:23.138Z,98917
2017-08-05T00:29:51.221Z,98918
2017-08-05T00:32:19.288Z,98912
2017-08-05T00:34:47.359Z,98913
2017-08-05T00:37:15.435Z,98915
2017-08-05T00:39:43.505Z,98907
2017-08-05T00:42:11.575Z,98910
2017-08-05T00:44:39.668Z,98914
2017-08-05T00:47:07.734Z,98911
2017-08-05T00:49:35.806Z,98916
2017-08-05T00:52:03.886Z,98914
2017-08-05T00:54:31.956Z,98924
2017-08-05T00:57:00.042Z,98913
2017-08-05T00:59:28.883Z,98908
2017-08-05T01:01:56.960Z,98911
2017-08-05T01:04:25.022Z,98920
2017-08-05T01:06:53.095Z,98913
2017-08-05T01:09:21.171Z,98917
2017-08-05T01:11:49.239Z,98920
2017-08-05T01:14:17.327Z,98918
2017-08-05T01:16:45.390Z,98922
2017-08-05T01:19:13.491Z,98925
2017-08-05T01:21:41.566Z,98922
2017-08-05T01:24:09.643Z,98923
2017-08-05T01:26:37.711Z,98933
2017-08-05T01:29:05.783Z,98922
2017-08-05T01:31:33.850Z,98929
2017-08-05T01:34:01.951Z,98926
2017-08-05T01:36:30.782Z,98942
2017-08-05T01:38:58.839Z,98940
2017-08-05T01:41:26.915Z,98949
2017-08-05T01:43:55.000Z,98948
2017-08-05T01:46:23.075Z,98942
2017-08-05T01:48:51.146Z,98936
2017-08-05T01:51:19.214Z,98938
2017-08-05T01:53:47.274Z,98934
2017-08-05T01:56:15.337Z,98937
2017-08-05T01:58:43.402Z,98944
2017-08-05T02:01:11.479Z,98936
2017-08-05T02:03:39.543Z,98942
2017-08-05T02:06:07.619Z,98938
2017-08-05T02:08:35.677Z,98936
2017-08-05T02:11:04.511Z,98928
2017-08-05T02:13:32.582Z,98935
2017-08-05T02:16:00.654Z,98932
2017-08-05T02:18:28.727Z,98933
2017-08-05T02:20:57.183Z,98941
2017-08-05T02:23:25.257Z,98941
2017-08-05T02:25:53.319Z,98933
2017-08-05T02:28:22.161Z,98933
2017-08-05T02:30:50.223Z,98940
2017-08-05T02:33:18.299Z,98935
2017-08-05T02:35:46.376Z,98934
2017-08-05T02:38:14.455Z,98930
2017-08-05T02:40:42.527Z,98926
2017-08-05T02:43:10.604Z,98923
2017-08-05T02:45:38.666Z,98923
2017-08-05T02:48:06.735Z,98930
2017-08-05T02:50:34.836Z,98927
2017-08-05T02:53:02.907Z,98921
2017-08-05T02:55:30.975Z,98916
2017-08-05T02:57:59.038Z,98921
2017-08-05T03:00:27.116Z,98910
2017-08-05T03:02:55.207Z,98917
2017-08-05T03:05:23.331Z,98909
2017-08-05T03:07:51.395Z,98914
2017-08-05T03:10:19.475Z,98907
2017-08-05T03:12:47.546Z,98910
2017-08-05T03:15:15.632Z,98904
2017-08-05T03:17:43.692Z,98905
2017-08-05T03:20:11.784Z,98910
2017-08-05T03:22:39.844Z,98912
2017-08-05T03:25:07.910Z,98909
2017-08-05T03:27:35.994Z,98908
2017-08-05T03:30:04.072Z,98898
2017-08-05T03:32:32.163Z,98909
2017-08-05T03:35:00.218Z,98912
2017-08-05T03:37:28.295Z,98907
2017-08-05T03:39:56.363Z,98914
2017-08-05T03:42:24.440Z,98913
2017-08-05T03:44:52.507Z,98913
2017-08-05T03:47:20.595Z,98913
2017-08-05T03:49:48.659Z,98910
2017-08-05T03:52:16.730Z,98912
2017-08-05T03:54:44.797Z,98907
2017-08-05T03:57:12.871Z,98897
2017-08-05T03:59:40.941Z,98898
2017-08-05T04:02:09.014Z,98904
2017-08-05T04:04:37.087Z,98894
2017-08-05T04:07:05.159Z,98902
2017-08-05T04:09:33.231Z,98898
2017-08-05T04:12:01.303Z,98892
2017-08-05T04:14:29.390Z,98887
2017-08-05T04:16:57.471Z,98883
2017-08-05T04:19:25.539Z,98884
2017-08-05T04:21:53.612Z,98885
2017-08-05T04:24:21.691Z,98886
2017-08-05T04:26:49.774Z,98879
2017-08-05T04:29:18.885Z,98886
2017-08-05T04:31:46.953Z,98885
2017-08-05T04:34:15.791Z,98879
2017-08-05T04:36:43.863Z,98883
2017-08-05T04:39:11.936Z,98881
2017-08-05T04:41:40.017Z,98884
2017-08-05T04:44:08.078Z,98871
2017-08-05T04:46:36.170Z,98878
2017-08-05T04:49:04.235Z,98887
2017-08-05T04:51:32.303Z,98875
2017-08-05T04:54:00.382Z,98876
2017-08-05T04:56:28.438Z,98874
2017-08-05T04:58:56.519Z,98866
2017-08-05T05:01:24.591Z,98872
2017-08-05T05:03:52.662Z,98869
2017-08-05T05:06:20.722Z,98866
2017-08-05T05:08:48.803Z,98878
2017-08-05T05:11:16.877Z,98879
2017-08-05T05:13:44.966Z,98888
2017-08-05T05:16:13.026Z,98883
2017-08-05T05:18:41.104Z,98881
2017-08-05T05:21:09.158Z,98880
2017-08-05T05:23:37.243Z,98879
2017-08-05T05:26:05.314Z,98884
2017-08-05T05:28:33.387Z,98880
2017-08-05T05:31:01.459Z,98883
2017-08-05T05:33:29.548Z,98889
2017-08-05T05:35:57.620Z,98873
2017-08-05T05:38:25.688Z,98879
2017-08-05T05:40:53.792Z,98874
2017-08-05T05:43:22.619Z,98883
2017-08-05T05:45:50.691Z,98881
2017-08-05T05:48:18.761Z,98878
2017-08-05T05:50:46.837Z,98878
2017-08-05T05:53:14.896Z,98865
2017-08-05T05:55:42.979Z,98859
2017-08-05T05:58:11.051Z,98865
2017-08-05T06:00:39.113Z,98865
2017-08-05T06:03:07.194Z,98868
2017-08-05T06:05:35.295Z,98860
2017-08-05T06:08:03.395Z,98864
2017-08-05T06:10:32.248Z,98867
2017-08-05T06:13:00.327Z,98859
2017-08-05T06:15:28.399Z,98868
2017-08-05T06:17:56.474Z,98865
2017-08-05T06:20:24.534Z,98874
2017-08-05T06:22:52.615Z,98869
2017-08-05T06:25:20.690Z,98870
2017-08-05T06:27:48.825Z,98875
2017-08-05T06:30:16.905Z,98874
2017-08-05T06:32:44.972Z,98882
2017-08-05T06:35:13.056Z,98875
2017-08-05T06:37:41.129Z,98883
2017-08-05T06:40:09.200Z,98876
2017-08-05T06:42:37.262Z,98879
2017-08-05T06:45:05.347Z,98872
2017-08-05T06:47:33.418Z,98863
2017-08-05T06:50:01.500Z,98865
2017-08-05T06:52:29.576Z,98863
2017-08-05T06:54:57.642Z,98857
2017-08-05T06:57:25.710Z,98860
2017-08-05T06:59:53.803Z,98848
2017-08-05T07:02:21.895Z,98842
2017-08-05T07:04:49.967Z,98837
2017-08-05T07:07:18.046Z,98842
2017-08-05T07:09:46.111Z,98843
2017-08-05T07:12:15.518Z,98836
2017-08-05T07:14:43.584Z,98836
2017-08-05T07:17:11.644Z,98839
2017-08-05T07:19:39.791Z,98834
2017-08-05T07:22:07.838Z,98839
2017-08-05T07:24:35.908Z,98833
2017-08-05T07:27:03.970Z,98835
2017-08-05T07:29:32.989Z,98817
2017-08-05T07:32:01.078Z,98825
2017-08-05T07:34:29.158Z,98817
2017-08-05T07:36:57.373Z,98816
2017-08-05T07:39:25.474Z,98814
2017-08-05T07:41:53.535Z,98802
2017-08-05T07:44:22.386Z,98803
2017-08-05T07:46:50.438Z,98811
2017-08-05T07:49:18.515Z,98811
2017-08-05T07:51:46.591Z,98802
2017-08-05T07:54:14.647Z,98797
2017-08-05T07:56:42.718Z,98801
2017-08-05T07:59:10.789Z,98793
2017-08-05T08:01:38.862Z,98796
2017-08-05T08:04:06.928Z,98785
2017-08-05T08:06:34.993Z,98793
2017-08-05T08:09:03.046Z,98794
2017-08-05T08:11:31.919Z,98798
2017-08-05T08:14:00.812Z,98795
2017-08-05T08:16:28.881Z,98797
2017-08-05T08:18:56.946Z,98786
2017-08-05T08:21:25.080Z,98791
2017-08-05T08:23:53.160Z,98781
2017-08-05T08:26:21.231Z,98785
2017-08-05T08:28:49.302Z,98782
2017-08-05T08:31:17.367Z,98794
2017-08-05T08:33:45.479Z,98781
2017-08-05T08:36:13.553Z,98783
2017-08-05T08:38:41.626Z,98775
2017-08-05T08:41:09.698Z,98777
2017-08-05T08:43:37.761Z,98781
2017-08-05T08:46:05.839Z,98781
2017-08-05T08:48:33.986Z,98779
2017-08-05T08:51:02.048Z,98774
2017-08-05T08:53:30.121Z,98773
2017-08-05T08:55:58.242Z,98769
2017-08-05T08:58:26.351Z,98777
2017-08-05T09:00:54.439Z,98774
2017-08-05T09:03:22.499Z,98775
2017-08-05T09:05:50.578Z,98769
2017-08-05T09:08:18.638Z,98771
2017-08-05T09:10:46.703Z,98767
2017-08-05T09:13:14.770Z,98763
2017-08-05T09:15:42.873Z,98764
2017-08-05T09:18:10.944Z,98756
2017-08-05T09:20:39.017Z,98745
2017-08-05T09:23:07.090Z,98746
2017-08-05T09:25:35.146Z,98741
2017-08-05T09:28:03.218Z,98743
2017-08-05T09:30:31.282Z,98741
2017-08-05T09:32:59.351Z,98726
2017-08-05T09:35:27.419Z,98730
2017-08-05T09:37:56.262Z,98717
2017-08-05T09:40:24.336Z,98717
2017-08-05T09:42:52.412Z,98721
2017-08-05T09:45:20.471Z,98720
2017-08-05T09:47:48.552Z,98727
2017-08-05T09:50:16.615Z,98724
2017-08-05T09:52:44.682Z,98733
2017-08-05T09:55:12.763Z,98724
2017-08-05T09:57:40.836Z,98725
2017-08-05T10:00:08.903Z,98723
2017-08-05T10:02:36.974Z,98728
2017-08-05T10:05:05.049Z,98722
2017-08-05T10:07:33.130Z,98718
2017-08-05T10:10:01.211Z,98725
2017-08-05T10:12:29.276Z,98716
2017-08-05T10:14:57.346Z,98715
2017-08-05T10:17:25.419Z,98712
2017-08-05T10:19:53.506Z,98710
2017-08-05T10:22:21.567Z,98704
2017-08-05T10:24:49.640Z,98702
2017-08-05T10:27:17.707Z,98698
2017-08-05T10:29:45.783Z,98692
2017-08-05T10:32:13.854Z,98691
2017-08-05T10:34:41.919Z,98691
2017-08-05T10:37:09.994Z,98686
2017-08-05T10:39:38.138Z,98683
2017-08-05T10:42:06.991Z,98686
2017-08-05T10:44:35.830Z,98674
2017-08-05T10:47:03.907Z,98667
2017-08-05T10:49:31.975Z,98668
2017-08-05T10:52:00.046Z,98664
2017-08-05T10:54:28.118Z,98657
2017-08-05T10:56:56.192Z,98668
2017-08-05T10:59:24.300Z,98659
2017-08-05T11:01:52.386Z,98660
2017-08-05T11:04:20.450Z,98657
2017-08-05T11:06:48.523Z,98656
2017-08-05T11:09:16.602Z,98654
2017-08-05T11:11:44.662Z,98663
2017-08-05T11:14:12.735Z,98644
2017-08-05T11:16:40.807Z,98649
2017-08-05T11:19:08.879Z,98648
2017-08-05T11:21:36.941Z,98660
2017-08-05T11:24:05.018Z,98659
2017-08-05T11:26:33.081Z,98653
2017-08-05T11:29:01.150Z,98666
2017-08-05T11:31:29.225Z,98654
2017-08-05T11:33:58.132Z,98651
2017-08-05T11:36:26.195Z,98642
2017-08-05T11:38:54.274Z,98645
2017-08-05T11:41:22.338Z,98643
2017-08-05T11:43:50.409Z,98641
2017-08-05T11:46:18.499Z,98629
2017-08-05T11:48:46.659Z,98644
2017-08-05T11:51:14.724Z,98640
2017-08-05T11:53:42.800Z,98635
2017-08-05T11:56:10.887Z,98629
2017-08-05T11:58:38.961Z,98616
2017-08-05T12:01:07.062Z,98630
2017-08-05T12:03:35.899Z,98621
2017-08-05T12:06:03.980Z,98625
2017-08-05T12:08:32.047Z,98620
2017-08-05T12:11:00.123Z,98627
2017-08-05T12:13:28.189Z,98631
2017-08-05T12:15:56.263Z,98630
2017-08-05T12:18:24.323Z,98628
2017-08-05T12:20:52.390Z,98626
2017-08-05T12:23:20.461Z,98623
2017-08-05T12:25:48.545Z,98617
2017-08-05T12:28:16.605Z,98620
2017-08-05T12:30:44.687Z,98619
2017-08-05T12:33:12.775Z,98613
2017-08-05T12:35:40.838Z,98609
2017-08-05T12:38:08.939Z,98610
2017-08-05T12:40:37.010Z,98618
2017-08-05T12:43:05.083Z,98606
2017-08-05T12:45:33.274Z,98614
2017-08-05T12:48:02.143Z,98603
2017-08-05T12:50:30.226Z,98606
2017-08-05T12:52:58.298Z,98594
2017-08-05T12:55:26.456Z,98598
2017-08-05T13:02:07.159Z,98590
2017-08-05T13:04:35.237Z,98586
2017-08-05T13:07:03.302Z,98578
2017-08-05T13:09:31.375Z,98576
2017-08-05T13:11:59.440Z,98593
2017-08-05T13:14:27.526Z,98587
2017-08-05T13:16:55.592Z,98575
2017-08-05T13:19:23.698Z,98573
2017-08-05T13:21:52.540Z,98576
2017-08-05T13:24:20.611Z,98564
2017-08-05T13:26:48.686Z,98560
2017-08-05T13:29:16.751Z,98560
2017-08-05T13:31:44.827Z,98555
2017-08-05T13:34:12.894Z,98557
2017-08-05T13:36:40.962Z,98549
2017-08-05T13:39:09.027Z,98558
2017-08-05T13:41:37.103Z,98544
2017-08-05T13:44:05.173Z,98552
2017-08-05T13:46:33.251Z,98568
2017-08-05T13:49:01.314Z,98556
2017-08-05T13:51:29.393Z,98562
2017-08-05T13:53:57.454Z,98571
2017-08-05T13:56:25.531Z,98571
2017-08-05T13:58:53.947Z,98568
2017-08-05T14:01:22.002Z,98574
2017-08-05T14:03:50.079Z,98582
2017-08-05T14:06:18.152Z,98581
2017-08-05T14:08:46.218Z,98577
2017-08-05T14:11:14.312Z,98581
2017-08-05T14:13:42.383Z,98589
2017-08-05T14:16:10.527Z,98593
2017-08-05T14:18:38.612Z,98585
2017-08-05T14:21:06.682Z,98587
2017-08-05T14:23:34.791Z,98614
2017-08-05T14:26:02.880Z,98620
2017-08-05T14:28:30.953Z,98626
2017-08-05T14:30:59.022Z,98637
2017-08-05T14:33:27.136Z,98652
2017-08-05T14:35:55.212Z,98650
2017-08-05T14:38:23.281Z,98668
2017-08-05T14:40:51.343Z,98663
2017-08-05T14:43:19.438Z,98687
2017-08-05T14:45:47.524Z,98695
2017-08-05T14:48:15.593Z,98683
2017-08-05T14:50:43.731Z,98691
2017-08-05T14:53:11.812Z,98704
2017-08-05T14:55:39.928Z,98700
2017-08-05T14:58:09.929Z,98705
2017-08-05T15:00:38.120Z,98705
2017-08-05T15:03:06.215Z,98712
2017-08-05T15:05:34.295Z,98699
2017-08-05T15:08:02.389Z,98693
2017-08-05T15:10:30.440Z,98675
2017-08-05T15:12:58.545Z,98654
2017-08-05T15:15:26.633Z,98666
2017-08-05T15:17:54.724Z,98648
2017-08-05T15:20:22.801Z,98648
2017-08-05T15:22:50.875Z,98635
2017-08-05T15:25:19.731Z,98643
2017-08-05T15:27:47.873Z,98632
2017-08-05T15:30:15.960Z,98640
2017-08-05T15:32:44.035Z,98637
2017-08-05T15:35:12.148Z,98644
2017-08-05T15:37:40.239Z,98649
2017-08-05T15:40:09.100Z,98628
2017-08-05T15:42:37.208Z,98640
2017-08-05T15:45:05.327Z,98645
2017-08-05T15:47:33.429Z,98656
2017-08-05T15:50:01.797Z,98649
2017-08-05T15:52:29.886Z,98645
2017-08-05T15:54:57.952Z,98641
2017-08-05T15:57:26.145Z,98635
2017-08-05T15:59:55.016Z,98645
2017-08-05T16:02:23.098Z,98631
2017-08-05T16:04:51.944Z,98633
2017-08-05T16:07:20.041Z,98625
2017-08-05T16:09:48.116Z,98638
2017-08-05T16:12:16.182Z,98626
2017-08-05T16:14:44.356Z,98632
2017-08-05T16:17:12.475Z,98628
2017-08-05T16:19:40.548Z,98639
2017-08-05T16:22:08.627Z,98630
2017-08-05T16:24:36.726Z,98639
2017-08-05T16:27:04.818Z,98621
2017-08-05T16:29:32.909Z,98623
2017-08-05T16:32:01.017Z,98633
2017-08-05T16:34:29.115Z,98638
2017-08-05T16:36:57.193Z,98636
2017-08-05T16:39:25.312Z,98644
2017-08-05T16:41:54.164Z,98646
2017-08-05T16:44:22.255Z,98656
2017-08-05T16:46:50.379Z,98666
2017-08-05T16:49:18.482Z,98660
2017-08-05T16:51:46.563Z,98661
2017-08-05T16:54:14.643Z,98657
2017-08-05T16:56:42.740Z,98658
2017-08-05T16:59:10.815Z,98658
2017-08-05T17:01:39.658Z,98668
2017-08-05T17:04:07.738Z,98652
2017-08-05T17:06:35.830Z,98671
2017-08-05T17:09:03.931Z,98675
2017-08-05T17:11:32.065Z,98679
2017-08-05T17:14:00.140Z,98677
2017-08-05T17:16:28.242Z,98691
2017-08-05T17:18:56.339Z,98696
2017-08-05T17:21:24.441Z,98695
2017-08-05T17:23:52.561Z,98698
2017-08-05T17:26:20.640Z,98693
2017-08-05T17:28:49.515Z,98699
2017-08-05T17:31:18.409Z,98695
2017-08-05T17:33:47.259Z,98691
2017-08-05T17:36:15.328Z,98686
2017-08-05T17:38:43.407Z,98693
2017-08-05T17:41:11.500Z,98690
2017-08-05T17:43:39.596Z,98691
2017-08-05T17:46:08.434Z,98708
2017-08-05T17:48:36.506Z,98723
2017-08-05T17:51:04.599Z,98726
2017-08-05T17:53:32.673Z,98741
2017-08-05T17:56:00.742Z,98737
2017-08-05T17:58:28.824Z,98734
2017-08-05T18:00:56.955Z,98747
2017-08-05T18:03:25.055Z,98752
2017-08-05T18:05:53.160Z,98742
2017-08-05T18:08:21.231Z,98747
2017-08-05T18:10:49.311Z,98747
2017-08-05T18:13:17.395Z,98742
2017-08-05T18:15:45.534Z,98746
2017-08-05T18:18:13.603Z,98759
2017-08-05T18:20:41.671Z,98780
2017-08-05T18:23:09.746Z,98771
2017-08-05T18:25:37.818Z,98779
2017-08-05T18:28:05.887Z,98788
2017-08-05T18:30:33.967Z,98778
2017-08-05T18:33:02.037Z,98775
2017-08-05T18:35:30.120Z,98787
2017-08-05T18:37:58.186Z,98793
2017-08-05T18:40:26.258Z,98798
2017-08-05T18:42:54.368Z,98797
2017-08-05T18:45:22.438Z,98792
2017-08-05T18:47:51.283Z,98788
2017-08-05T18:50:19.355Z,98795
2017-08-05T18:53:00.639Z,98794
2017-08-05T18:55:28.716Z,98803
2017-08-05T18:57:56.786Z,98812
2017-08-05T19:00:24.880Z,98812
2017-08-05T19:02:52.960Z,98809
2017-08-05T19:05:21.023Z,98814
2017-08-05T19:07:49.104Z,98821
2017-08-05T19:10:17.163Z,98827
2017-08-05T19:12:45.256Z,98829
2017-08-05T19:15:14.099Z,98837
2017-08-05T19:17:42.171Z,98836
2017-08-05T19:20:10.271Z,98844
2017-08-05T19:22:38.347Z,98857
2017-08-05T19:25:06.430Z,98861
2017-08-05T19:27:34.493Z,98858
2017-08-05T19:30:02.571Z,98861
2017-08-05T19:32:30.643Z,98870
2017-08-05T19:34:58.727Z,98876
2017-08-05T19:37:27.586Z,98873
2017-08-05T19:39:55.654Z,98867
2017-08-05T19:42:23.727Z,98869
2017-08-05T19:44:51.814Z,98878
2017-08-05T19:47:19.947Z,98873
2017-08-05T19:49:48.026Z,98875
2017-08-05T19:52:16.118Z,98862
2017-08-05T19:54:44.487Z,98872
2017-08-05T19:57:12.558Z,98877
2017-08-05T19:59:40.623Z,98884
2017-08-05T20:02:08.720Z,98883
2017-08-05T20:04:36.790Z,98882
2017-08-05T20:07:04.855Z,98891
2017-08-05T20:09:32.928Z,98883
2017-08-05T20:12:01.005Z,98887
2017-08-05T20:14:29.070Z,98900
2017-08-05T20:16:57.343Z,98896
2017-08-05T20:19:25.423Z,98903
2017-08-05T20:21:53.508Z,98911
2017-08-05T20:24:21.583Z,98910
2017-08-05T20:26:49.662Z,98913
2017-08-05T20:29:17.721Z,98926
2017-08-05T20:31:45.795Z,98922
2017-08-05T20:34:13.888Z,98931
2017-08-05T20:36:41.959Z,98930
2017-08-05T20:39:10.040Z,98947
2017-08-05T20:41:38.878Z,98943
2017-08-05T20:44:06.966Z,98957
2017-08-05T20:46:35.037Z,98959
2017-08-05T20:49:03.119Z,98957
2017-08-05T20:51:31.184Z,98954
2017-08-05T20:53:59.271Z,98958
2017-08-05T20:56:27.342Z,98961
2017-08-05T20:58:55.428Z,98975
2017-08-05T21:01:23.501Z,98976
2017-08-05T21:03:51.570Z,98983
2017-08-05T21:06:19.643Z,98978
2017-08-05T21:08:47.711Z,98982
2017-08-05T21:11:15.791Z,98990
2017-08-05T21:13:44.735Z,98989
2017-08-05T21:16:13.140Z,99002
2017-08-05T21:18:42.006Z,99007
2017-08-05T21:21:10.846Z,99000
2017-08-05T21:23:39.703Z,99005
2017-08-05T21:26:07.780Z,99016
2017-08-05T21:28:35.847Z,99018
2017-08-05T21:31:03.923Z,99013
2017-08-05T21:33:31.994Z,99011
2017-08-05T21:36:00.070Z,99018
2017-08-05T21:38:28.137Z,99025
2017-08-05T21:40:56.210Z,99033
2017-08-05T21:43:24.282Z,99035
2017-08-05T21:45:52.355Z,99048
2017-08-05T21:48:20.427Z,99039
2017-08-05T21:50:48.514Z,99053
2017-08-05T21:53:16.581Z,99053
2017-08-05T21:55:44.646Z,99057
2017-08-05T21:58:12.719Z,99058
2017-08-05T22:00:40.796Z,99069
2017-08-05T22:03:08.864Z,99070
2017-08-05T22:05:36.929Z,99069
2017-08-05T22:08:05.008Z,99075
2017-08-05T22:10:33.082Z,99086
2017-08-05T22:13:01.154Z,99077
2017-08-05T22:15:29.223Z,99084
2017-08-05T22:17:57.302Z,99099
2017-08-05T22:20:25.398Z,99097
2017-08-05T22:22:53.487Z,99098
2017-08-05T22:25:21.830Z,99100
2017-08-05T22:27:49.895Z,99104
2017-08-05T22:30:17.975Z,99116
2017-08-05T22:32:46.043Z,99115
2017-08-05T22:35:14.123Z,99116
2017-08-05T22:37:42.183Z,99111
2017-08-05T22:40:10.263Z,99127
2017-08-05T22:42:38.334Z,99131
2017-08-05T22:45:06.405Z,99149
2017-08-05T22:47:34.474Z,99142
2017-08-05T22:50:02.576Z,99134
2017-08-05T22:52:30.642Z,99141
2017-08-05T22:54:58.713Z,99140
2017-08-05T22:57:27.409Z,99143
2017-08-05T22:59:55.533Z,99150
2017-08-05T23:02:28.777Z,99144
2017-08-05T23:04:56.855Z,99147
2017-08-05T23:07:25.019Z,99150
2017-08-05T23:09:53.165Z,99151
2017-08-05T23:12:21.254Z,99147
2017-08-05T23:14:49.327Z,99160
2017-08-05T23:17:17.399Z,99158
2017-08-05T23:19:45.488Z,99164
2017-08-05T23:22:13.783Z,99162
2017-08-05T23:24:41.843Z,99155
2017-08-05T23:27:09.914Z,99163
2017-08-05T23:29:37.986Z,99169
2017-08-05T23:32:06.819Z,99160
2017-08-05T23:34:34.890Z,99167
2017-08-05T23:37:02.968Z,99161
2017-08-05T23:39:31.051Z,99162
2017-08-05T23:41:59.135Z,99170
2017-08-05T23:44:27.208Z,99162
2017-08-05T23:46:55.279Z,99178
2017-08-05T23:49:23.357Z,99178
2017-08-05T23:51:51.427Z,99171
2017-08-05T23:54:19.500Z,99179
2017-08-05T23:56:47.567Z,99177
2017-08-05T23:59:15.638Z,99174
